Flora, IL (62839)

9:16 AM CST on January 24, 2017 (GMT -0600)
E. Flora | | Change Station
Active Advisory: Flood Warning

Elev 449 ft 38.67 °N, 88.42 °W | Updated 15 minutes ago

Overcast
Overcast
40.6 °F
Feels Like 41 °F
N
3.0
Wind Variable Wind from SSW
Gusts 4.0 mph

Today
High -- | Low -- °F
--% Chance of Precip.
Yesterday
High -- | Low -- °F
Precip. -- in
Pressure 29.94 in
Visibility 10.0 miles
Clouds Overcast 2300 ft
Windchill 41 °F
Dew Point 36 °F
Humidity 86%
Rainfall 0.00 in
Snow Depth Not available.
7:05 AM 5:07 PM
Waning Crescent, 11% visible
METAR KFOA 241455Z AUTO 00000KT 10SM OVC023 05/01 A2994 RMK AO2 T00530008
Pressure 29.94 in
Visibility 10.0 miles
Clouds Overcast 2300 ft
Windchill 41 °F
Dew Point 36 °F
Humidity 86%
Rainfall 0.00 in
Snow Depth Not available.
7:05 AM 5:07 PM
Waning Crescent, 11% visible
METAR KFOA 241455Z AUTO 00000KT 10SM OVC023 05/01 A2994 RMK AO2 T00530008

Get Your Daily Forecast Email!

Thanks for signing up!

Be on the lookout for a verification email in your inbox.

You'll start receiving the daily forecast at 8 AM.

×

10-Day Weather Forecast

Almanac

Astronomy

Jan. 24, 2017 Rise Set
Actual Time
Civil Twilight
Nautical Twilight
Astronomical Twilight
Moon
Length of Visible Light
Length of Day
Tomorrow will be .
, % of the Moon is Illuminated

Today's Extremes

State Highs State Lows

Community

WunderPhotos

Upload Photos

1,962,540 photos uploaded!

WunderBlog® & News

Nearby

Air Quality

  Air Quality AQ Index Pollutant
Not available.

Snow Depth

Station Depth Elevation

Earthquake Activity

City Distance Mag. Time & Date
Minimum magnitude displayed is 2.5.

Coastal Water Temperatures

Place Temperature

Stations

Nearby Weather Stations

Station Location Temp. Windchill Dew Point Humidity Wind Precip. Elev Updated Type
                   

Watches & Warnings

Flood Warning
Issued: 8:25 PM CST Jan. 23, 2017 – National Weather Service

The Flood Warning continues for
the Little Wabash River near Clay City.
* Until late Tuesday night.
* At 745 PM Monday the stage was 19.6 feet.
* Flood stage is 18.0 feet.
* Minor flooding is occurring and minor flooding is forecast.
* Forecast... the river will continue to fall to below flood stage by
tomorrow evening.
* Impact... at 19.7 feet... Mayflower Road... just north of U.S. Route
50... begins to flood.



                  Fld observed forecast 6am
location stg stg day time Tue Wed Thu

Little Wabash River
Clay City 18 19.6 Mon 8 PM 19.3 17.3 13.9



Lat... Lon 3878 8846 3871 8829 3860 8820 3860 8832
      3867 8838 3870 8846